sensor_id;sensor_type;location;lat;lon;timestamp;pressure;altitude;pressure_sealevel;temperature;humidity
58471;BME280;44258;51.288;12.068;2022-09-28T00:02:07;98690.94;;;10.31;57.78
58471;BME280;44258;51.288;12.068;2022-09-28T00:04:34;98693.50;;;10.21;57.85
58471;BME280;44258;51.288;12.068;2022-09-28T00:07:00;98689.59;;;10.25;57.87
58471;BME280;44258;51.288;12.068;2022-09-28T00:09:28;98686.53;;;10.30;57.76
58471;BME280;44258;51.288;12.068;2022-09-28T00:11:54;98681.66;;;10.35;57.74
58471;BME280;44258;51.288;12.068;2022-09-28T00:14:21;98685.44;;;10.32;57.67
58471;BME280;44258;51.288;12.068;2022-09-28T00:16:48;98685.44;;;10.32;57.67
58471;BME280;44258;51.288;12.068;2022-09-28T00:19:15;98678.69;;;10.38;57.51
58471;BME280;44258;51.288;12.068;2022-09-28T00:21:41;98671.41;;;10.29;57.97
58471;BME280;44258;51.288;12.068;2022-09-28T00:24:12;98674.72;;;10.21;58.06
58471;BME280;44258;51.288;12.068;2022-09-28T00:26:44;98673.25;;;10.17;58.10
58471;BME280;44258;51.288;12.068;2022-09-28T00:29:17;98675.47;;;10.12;58.15
58471;BME280;44258;51.288;12.068;2022-09-28T00:31:45;98672.28;;;10.18;58.10
58471;BME280;44258;51.288;12.068;2022-09-28T00:34:12;98666.25;;;10.26;58.26
58471;BME280;44258;51.288;12.068;2022-09-28T00:36:42;98665.81;;;10.21;57.87
58471;BME280;44258;51.288;12.068;2022-09-28T00:39:11;98668.84;;;10.27;57.89
58471;BME280;44258;51.288;12.068;2022-09-28T00:41:38;98665.81;;;10.21;57.76
58471;BME280;44258;51.288;12.068;2022-09-28T00:44:37;98661.03;;;10.24;57.68
58471;BME280;44258;51.288;12.068;2022-09-28T00:47:23;98660.66;;;10.29;57.40
58471;BME280;44258;51.288;12.068;2022-09-28T00:49:54;98664.78;;;10.33;57.38
58471;BME280;44258;51.288;12.068;2022-09-28T00:52:25;98653.44;;;10.29;57.33
58471;BME280;44258;51.288;12.068;2022-09-28T00:54:53;98646.88;;;10.22;57.43
58471;BME280;44258;51.288;12.068;2022-09-28T00:57:21;98650.66;;;10.20;57.51
58471;BME280;44258;51.288;12.068;2022-09-28T00:59:50;98653.47;;;10.18;57.52
58471;BME280;44258;51.288;12.068;2022-09-28T01:02:18;98648.47;;;10.13;57.46
58471;BME280;44258;51.288;12.068;2022-09-28T01:04:45;98655.06;;;10.09;57.35
58471;BME280;44258;51.288;12.068;2022-09-28T01:07:13;98660.19;;;10.01;57.51
58471;BME280;44258;51.288;12.068;2022-09-28T01:09:40;98651.91;;;9.93;57.54
58471;BME280;44258;51.288;12.068;2022-09-28T01:12:10;98641.66;;;9.87;57.80
58471;BME280;44258;51.288;12.068;2022-09-28T01:14:37;98646.19;;;9.86;57.97
58471;BME280;44258;51.288;12.068;2022-09-28T01:17:06;98640.81;;;9.86;57.82
58471;BME280;44258;51.288;12.068;2022-09-28T01:22:38;98643.00;;;9.92;57.84
58471;BME280;44258;51.288;12.068;2022-09-28T01:25:12;98637.38;;;9.95;57.39
58471;BME280;44258;51.288;12.068;2022-09-28T01:27:46;98631.78;;;9.87;57.62
58471;BME280;44258;51.288;12.068;2022-09-28T01:30:17;98630.09;;;9.86;57.41
58471;BME280;44258;51.288;12.068;2022-09-28T01:32:48;98619.00;;;9.80;57.58
58471;BME280;44258;51.288;12.068;2022-09-28T01:35:19;98620.56;;;9.71;57.85
58471;BME280;44258;51.288;12.068;2022-09-28T01:37:49;98625.47;;;9.66;57.82
58471;BME280;44258;51.288;12.068;2022-09-28T01:40:19;98613.50;;;9.59;57.83
58471;BME280;44258;51.288;12.068;2022-09-28T01:42:53;98602.53;;;9.50;58.30
58471;BME280;44258;51.288;12.068;2022-09-28T01:45:25;98600.56;;;9.52;57.95
58471;BME280;44258;51.288;12.068;2022-09-28T01:47:55;98594.63;;;9.49;58.02
58471;BME280;44258;51.288;12.068;2022-09-28T01:50:24;98591.06;;;9.48;57.79
58471;BME280;44258;51.288;12.068;2022-09-28T01:52:55;98593.16;;;9.45;57.90
58471;BME280;44258;51.288;12.068;2022-09-28T01:55:27;98590.59;;;9.43;58.02
58471;BME280;44258;51.288;12.068;2022-09-28T01:58:00;98588.00;;;9.42;58.13
58471;BME280;44258;51.288;12.068;2022-09-28T02:00:31;98585.34;;;9.42;57.79
58471;BME280;44258;51.288;12.068;2022-09-28T02:03:04;98576.06;;;9.34;57.78
58471;BME280;44258;51.288;12.068;2022-09-28T02:05:34;98569.09;;;9.21;57.77
58471;BME280;44258;51.288;12.068;2022-09-28T02:08:05;98566.50;;;9.08;58.06
58471;BME280;44258;51.288;12.068;2022-09-28T02:10:38;98569.53;;;9.03;58.29
58471;BME280;44258;51.288;12.068;2022-09-28T02:13:11;98572.47;;;9.00;58.19
58471;BME280;44258;51.288;12.068;2022-09-28T02:15:41;98568.19;;;8.98;58.12
58471;BME280;44258;51.288;12.068;2022-09-28T02:18:10;98570.63;;;8.89;58.20
58471;BME280;44258;51.288;12.068;2022-09-28T02:20:39;98568.41;;;8.72;58.56
58471;BME280;44258;51.288;12.068;2022-09-28T02:23:09;98563.63;;;8.64;59.06
58471;BME280;44258;51.288;12.068;2022-09-28T02:25:39;98561.63;;;8.55;59.38
58471;BME280;44258;51.288;12.068;2022-09-28T02:28:07;98565.19;;;8.56;59.23
58471;BME280;44258;51.288;12.068;2022-09-28T02:30:38;98562.09;;;8.49;59.43
58471;BME280;44258;51.288;12.068;2022-09-28T02:33:10;98559.78;;;8.44;59.46
58471;BME280;44258;51.288;12.068;2022-09-28T02:35:39;98575.00;;;8.44;59.63
58471;BME280;44258;51.288;12.068;2022-09-28T02:38:06;98565.75;;;8.48;59.88
58471;BME280;44258;51.288;12.068;2022-09-28T02:40:33;98572.59;;;8.52;59.85
58471;BME280;44258;51.288;12.068;2022-09-28T02:43:08;98565.28;;;8.54;59.89
58471;BME280;44258;51.288;12.068;2022-09-28T02:45:48;98568.97;;;8.64;59.86
58471;BME280;44258;51.288;12.068;2022-09-28T02:48:26;98557.06;;;8.68;59.74
58471;BME280;44258;51.288;12.068;2022-09-28T02:51:00;98556.09;;;8.69;59.71
58471;BME280;44258;51.288;12.068;2022-09-28T02:53:44;98559.63;;;8.81;59.50
58471;BME280;44258;51.288;12.068;2022-09-28T02:56:28;98557.94;;;8.91;59.08
58471;BME280;44258;51.288;12.068;2022-09-28T02:59:04;98555.78;;;8.97;59.58
58471;BME280;44258;51.288;12.068;2022-09-28T03:01:39;98566.50;;;8.97;59.63
58471;BME280;44258;51.288;12.068;2022-09-28T03:04:15;98560.88;;;9.00;60.01
58471;BME280;44258;51.288;12.068;2022-09-28T03:06:46;98550.19;;;9.11;59.69
58471;BME280;44258;51.288;12.068;2022-09-28T03:09:18;98539.56;;;9.09;59.75
58471;BME280;44258;51.288;12.068;2022-09-28T03:11:50;98536.63;;;9.01;59.48
58471;BME280;44258;51.288;12.068;2022-09-28T03:14:17;98532.75;;;9.05;59.82
58471;BME280;44258;51.288;12.068;2022-09-28T03:16:46;98530.19;;;9.04;59.94
58471;BME280;44258;51.288;12.068;2022-09-28T03:19:13;98526.16;;;9.09;59.74
58471;BME280;44258;51.288;12.068;2022-09-28T03:21:41;98528.97;;;9.08;59.16
58471;BME280;44258;51.288;12.068;2022-09-28T03:24:07;98526.06;;;9.11;59.54
58471;BME280;44258;51.288;12.068;2022-09-28T03:26:35;98528.72;;;9.11;59.48
58471;BME280;44258;51.288;12.068;2022-09-28T03:29:02;98526.53;;;9.05;59.62
58471;BME280;44258;51.288;12.068;2022-09-28T03:31:28;98523.72;;;8.95;59.74
58471;BME280;44258;51.288;12.068;2022-09-28T03:33:56;98522.38;;;8.89;60.00
58471;BME280;44258;51.288;12.068;2022-09-28T03:36:22;98521.25;;;8.81;60.38
58471;BME280;44258;51.288;12.068;2022-09-28T03:38:51;98517.97;;;8.77;60.37
58471;BME280;44258;51.288;12.068;2022-09-28T03:41:19;98518.47;;;8.82;60.36
58471;BME280;44258;51.288;12.068;2022-09-28T03:43:46;98509.81;;;8.79;60.35
58471;BME280;44258;51.288;12.068;2022-09-28T03:46:12;98514.06;;;8.81;60.28
58471;BME280;44258;51.288;12.068;2022-09-28T03:48:39;98514.22;;;8.91;60.41
58471;BME280;44258;51.288;12.068;2022-09-28T03:51:09;98515.06;;;8.91;60.06
58471;BME280;44258;51.288;12.068;2022-09-28T03:53:36;98508.47;;;8.95;60.00
58471;BME280;44258;51.288;12.068;2022-09-28T03:56:03;98501.31;;;8.96;59.93
58471;BME280;44258;51.288;12.068;2022-09-28T03:58:31;98499.38;;;8.98;59.51
58471;BME280;44258;51.288;12.068;2022-09-28T04:01:00;98494.72;;;8.89;60.01
58471;BME280;44258;51.288;12.068;2022-09-28T04:03:27;98488.41;;;8.90;60.09
58471;BME280;44258;51.288;12.068;2022-09-28T04:05:53;98489.84;;;8.94;60.08
58471;BME280;44258;51.288;12.068;2022-09-28T04:08:21;98475.25;;;8.98;60.27
58471;BME280;44258;51.288;12.068;2022-09-28T04:10:47;98469.63;;;9.01;59.92
58471;BME280;44258;51.288;12.068;2022-09-28T04:13:14;98475.72;;;9.03;59.88
58471;BME280;44258;51.288;12.068;2022-09-28T04:15:41;98475.22;;;9.09;60.01
58471;BME280;44258;51.288;12.068;2022-09-28T04:18:08;98474.38;;;9.09;59.78
58471;BME280;44258;51.288;12.068;2022-09-28T04:20:35;98465.72;;;9.05;59.76
58471;BME280;44258;51.288;12.068;2022-09-28T04:23:04;98466.31;;;8.98;60.03
58471;BME280;44258;51.288;12.068;2022-09-28T04:25:32;98452.19;;;8.84;60.69
58471;BME280;44258;51.288;12.068;2022-09-28T04:27:58;98451.94;;;8.87;60.74
58471;BME280;44258;51.288;12.068;2022-09-28T04:30:43;98453.06;;;8.96;60.56
58471;BME280;44258;51.288;12.068;2022-09-28T04:33:11;98454.88;;;9.07;60.45
58471;BME280;44258;51.288;12.068;2022-09-28T04:35:37;98455.22;;;9.13;60.29
58471;BME280;44258;51.288;12.068;2022-09-28T04:38:04;98448.91;;;9.03;60.46
58471;BME280;44258;51.288;12.068;2022-09-28T04:40:31;98451.13;;;8.98;60.74
58471;BME280;44258;51.288;12.068;2022-09-28T04:42:58;98448.41;;;9.09;60.78
58471;BME280;44258;51.288;12.068;2022-09-28T04:45:24;98449.38;;;9.20;60.62
58471;BME280;44258;51.288;12.068;2022-09-28T04:47:51;98444.25;;;9.28;60.29
58471;BME280;44258;51.288;12.068;2022-09-28T04:50:18;98438.53;;;9.32;60.23
58471;BME280;44258;51.288;12.068;2022-09-28T04:52:44;98447.28;;;9.34;60.24
58471;BME280;44258;51.288;12.068;2022-09-28T04:55:11;98441.59;;;9.39;60.39
58471;BME280;44258;51.288;12.068;2022-09-28T04:57:40;98443.03;;;9.43;60.31
58471;BME280;44258;51.288;12.068;2022-09-28T05:00:07;98436.16;;;9.50;60.19
58471;BME280;44258;51.288;12.068;2022-09-28T05:02:34;98429.56;;;9.54;59.99
58471;BME280;44258;51.288;12.068;2022-09-28T05:05:01;98428.84;;;9.52;60.14
58471;BME280;44258;51.288;12.068;2022-09-28T05:07:28;98428.34;;;9.59;60.22
58471;BME280;44258;51.288;12.068;2022-09-28T05:09:55;98423.13;;;9.57;59.97
58471;BME280;44258;51.288;12.068;2022-09-28T05:12:21;98417.59;;;9.59;59.94
58471;BME280;44258;51.288;12.068;2022-09-28T05:14:49;98425.03;;;9.66;60.21
58471;BME280;44258;51.288;12.068;2022-09-28T05:17:16;98412.34;;;9.68;59.79
58471;BME280;44258;51.288;12.068;2022-09-28T05:19:42;98417.47;;;9.71;59.80
58471;BME280;44258;51.288;12.068;2022-09-28T05:22:09;98409.88;;;9.77;60.07
58471;BME280;44258;51.288;12.068;2022-09-28T05:24:39;98405.09;;;9.80;59.98
58471;BME280;44258;51.288;12.068;2022-09-28T05:27:05;98410.25;;;9.72;59.81
58471;BME280;44258;51.288;12.068;2022-09-28T05:29:32;98404.06;;;9.60;60.18
58471;BME280;44258;51.288;12.068;2022-09-28T05:32:00;98405.44;;;9.54;60.53
58471;BME280;44258;51.288;12.068;2022-09-28T05:34:26;98406.75;;;9.60;60.62
58471;BME280;44258;51.288;12.068;2022-09-28T05:36:53;98402.97;;;9.63;60.57
58471;BME280;44258;51.288;12.068;2022-09-28T05:39:19;98391.72;;;9.69;60.55
58471;BME280;44258;51.288;12.068;2022-09-28T05:41:46;98398.16;;;9.78;60.49
58471;BME280;44258;51.288;12.068;2022-09-28T05:44:12;98389.13;;;9.79;60.43
58471;BME280;44258;51.288;12.068;2022-09-28T05:46:39;98391.16;;;9.86;60.72
58471;BME280;44258;51.288;12.068;2022-09-28T05:49:07;98389.63;;;9.93;60.44
58471;BME280;44258;51.288;12.068;2022-09-28T05:51:33;98388.44;;;9.98;60.19
58471;BME280;44258;51.288;12.068;2022-09-28T05:53:59;98385.75;;;9.98;60.33
58471;BME280;44258;51.288;12.068;2022-09-28T05:56:28;98384.63;;;10.00;60.49
58471;BME280;44258;51.288;12.068;2022-09-28T05:58:55;98385.94;;;10.06;60.55
58471;BME280;44258;51.288;12.068;2022-09-28T06:01:23;98375.66;;;10.11;60.56
58471;BME280;44258;51.288;12.068;2022-09-28T06:03:49;98378.19;;;10.12;60.53
58471;BME280;44258;51.288;12.068;2022-09-28T06:06:17;98379.53;;;10.18;60.73
58471;BME280;44258;51.288;12.068;2022-09-28T06:08:43;98377.41;;;10.22;60.63
58471;BME280;44258;51.288;12.068;2022-09-28T06:11:12;98383.38;;;10.25;60.81
58471;BME280;44258;51.288;12.068;2022-09-28T06:13:39;98390.69;;;10.23;60.61
58471;BME280;44258;51.288;12.068;2022-09-28T06:16:05;98390.69;;;10.23;60.69
58471;BME280;44258;51.288;12.068;2022-09-28T06:18:33;98383.78;;;10.21;60.93
58471;BME280;44258;51.288;12.068;2022-09-28T06:20:59;98376.56;;;10.21;60.85
58471;BME280;44258;51.288;12.068;2022-09-28T06:23:27;98382.41;;;10.26;60.90
58471;BME280;44258;51.288;12.068;2022-09-28T06:25:53;98387.38;;;10.31;60.94
58471;BME280;44258;51.288;12.068;2022-09-28T06:28:20;98384.69;;;10.31;60.78
58471;BME280;44258;51.288;12.068;2022-09-28T06:30:46;98388.22;;;10.31;61.05
58471;BME280;44258;51.288;12.068;2022-09-28T06:33:13;98377.53;;;10.41;61.09
58471;BME280;44258;51.288;12.068;2022-09-28T06:35:40;98374.44;;;10.46;60.94
58471;BME280;44258;51.288;12.068;2022-09-28T06:38:07;98387.72;;;10.47;60.46
58471;BME280;44258;51.288;12.068;2022-09-28T06:40:35;98392.50;;;10.44;60.48
58471;BME280;44258;51.288;12.068;2022-09-28T06:43:03;98379.94;;;10.44;60.80
58471;BME280;44258;51.288;12.068;2022-09-28T06:45:34;98383.19;;;10.48;60.57
58471;BME280;44258;51.288;12.068;2022-09-28T06:48:02;98379.09;;;10.44;60.48
58471;BME280;44258;51.288;12.068;2022-09-28T06:50:31;98374.06;;;10.29;60.63
58471;BME280;44258;51.288;12.068;2022-09-28T06:52:59;98379.78;;;10.15;60.97
58471;BME280;44258;51.288;12.068;2022-09-28T06:55:27;98383.78;;;10.00;61.64
58471;BME280;44258;51.288;12.068;2022-09-28T06:57:59;98381.75;;;9.92;61.89
58471;BME280;44258;51.288;12.068;2022-09-28T07:00:25;98384.03;;;9.97;61.95
58471;BME280;44258;51.288;12.068;2022-09-28T07:02:52;98377.09;;;9.94;61.96
58471;BME280;44258;51.288;12.068;2022-09-28T07:05:18;98382.78;;;10.01;62.28
58471;BME280;44258;51.288;12.068;2022-09-28T07:07:51;98384.22;;;10.05;62.20
58471;BME280;44258;51.288;12.068;2022-09-28T07:10:19;98379.03;;;10.13;62.13
58471;BME280;44258;51.288;12.068;2022-09-28T07:12:47;98381.09;;;10.21;62.11
58471;BME280;44258;51.288;12.068;2022-09-28T07:15:15;98380.09;;;10.22;62.35
58471;BME280;44258;51.288;12.068;2022-09-28T07:17:42;98380.44;;;10.28;62.20
58471;BME280;44258;51.288;12.068;2022-09-28T07:20:08;98383.97;;;10.29;62.23
58471;BME280;44258;51.288;12.068;2022-09-28T07:22:35;98386.38;;;10.32;62.27
58471;BME280;44258;51.288;12.068;2022-09-28T07:25:04;98378.47;;;10.30;62.50
58471;BME280;44258;51.288;12.068;2022-09-28T07:27:30;98386.78;;;10.27;62.46
58471;BME280;44258;51.288;12.068;2022-09-28T07:29:57;98389.75;;;10.24;62.54
58471;BME280;44258;51.288;12.068;2022-09-28T07:32:25;98388.84;;;10.24;62.53
58471;BME280;44258;51.288;12.068;2022-09-28T07:34:52;98391.41;;;10.25;62.16
58471;BME280;44258;51.288;12.068;2022-09-28T07:37:20;98388.84;;;10.24;62.86
58471;BME280;44258;51.288;12.068;2022-09-28T07:39:48;98388.66;;;10.15;62.89
58471;BME280;44258;51.288;12.068;2022-09-28T07:42:32;98391.53;;;10.24;62.46
58471;BME280;44258;51.288;12.068;2022-09-28T07:44:58;98390.78;;;10.12;62.48
58471;BME280;44258;51.288;12.068;2022-09-28T07:47:26;98385.34;;;10.02;62.74
58471;BME280;44258;51.288;12.068;2022-09-28T07:49:53;98383.25;;;10.06;62.46
58471;BME280;44258;51.288;12.068;2022-09-28T07:52:21;98391.16;;;10.07;62.58
58471;BME280;44258;51.288;12.068;2022-09-28T07:54:50;98392.09;;;9.97;62.28
58471;BME280;44258;51.288;12.068;2022-09-28T07:57:17;98386.03;;;9.83;62.42
58471;BME280;44258;51.288;12.068;2022-09-28T07:59:44;98393.88;;;9.75;62.69
58471;BME280;44258;51.288;12.068;2022-09-28T08:02:12;98388.00;;;9.81;62.69
58471;BME280;44258;51.288;12.068;2022-09-28T08:04:39;98389.78;;;9.92;62.66
58471;BME280;44258;51.288;12.068;2022-09-28T08:07:08;98389.16;;;10.00;62.48
58471;BME280;44258;51.288;12.068;2022-09-28T08:09:34;98390.13;;;9.99;62.28
58471;BME280;44258;51.288;12.068;2022-09-28T08:12:01;98389.41;;;9.97;62.72
58471;BME280;44258;51.288;12.068;2022-09-28T08:14:29;98384.50;;;10.02;62.32
58471;BME280;44258;51.288;12.068;2022-09-28T08:16:58;98387.22;;;10.11;62.47
58471;BME280;44258;51.288;12.068;2022-09-28T08:19:24;98387.41;;;10.20;62.61
58471;BME280;44258;51.288;12.068;2022-09-28T08:21:52;98387.78;;;10.26;62.21
58471;BME280;44258;51.288;12.068;2022-09-28T08:24:17;98391.19;;;10.28;61.69
58471;BME280;44258;51.288;12.068;2022-09-28T08:26:44;98385.59;;;10.20;61.82
58471;BME280;44258;51.288;12.068;2022-09-28T08:29:11;98387.22;;;10.11;61.92
58471;BME280;44258;51.288;12.068;2022-09-28T08:31:38;98387.91;;;10.04;62.05
58471;BME280;44258;51.288;12.068;2022-09-28T08:34:05;98391.41;;;9.83;62.54
58471;BME280;44258;51.288;12.068;2022-09-28T08:36:31;98389.44;;;9.85;62.85
58471;BME280;44258;51.288;12.068;2022-09-28T08:38:59;98394.75;;;9.97;63.02
58471;BME280;44258;51.288;12.068;2022-09-28T08:41:33;98397.06;;;10.01;63.09
58471;BME280;44258;51.288;12.068;2022-09-28T08:44:13;98400.09;;;10.08;62.86
58471;BME280;44258;51.288;12.068;2022-09-28T08:46:43;98399.88;;;10.21;62.93
58471;BME280;44258;51.288;12.068;2022-09-28T08:49:13;98404.53;;;10.19;63.08
58471;BME280;44258;51.288;12.068;2022-09-28T08:51:46;98400.19;;;10.27;63.63
58471;BME280;44258;51.288;12.068;2022-09-28T08:54:24;98404.25;;;10.22;63.53
58471;BME280;44258;51.288;12.068;2022-09-28T08:56:56;98404.84;;;10.25;63.68
58471;BME280;44258;51.288;12.068;2022-09-28T08:59:30;98398.09;;;10.31;63.46
58471;BME280;44258;51.288;12.068;2022-09-28T09:02:03;98410.78;;;10.50;63.54
58471;BME280;44258;51.288;12.068;2022-09-28T09:04:30;98404.22;;;10.64;63.14
58471;BME280;44258;51.288;12.068;2022-09-28T09:07:14;98402.53;;;10.63;63.47
58471;BME280;44258;51.288;12.068;2022-09-28T09:09:53;98405.13;;;10.74;63.34
58471;BME280;44258;51.288;12.068;2022-09-28T09:12:29;98410.84;;;10.81;63.26
58471;BME280;44258;51.288;12.068;2022-09-28T09:18:13;98415.34;;;11.11;62.54
58471;BME280;44258;51.288;12.068;2022-09-28T09:20:46;98412.94;;;11.18;62.61
58471;BME280;44258;51.288;12.068;2022-09-28T09:23:17;98413.66;;;11.20;62.53
58471;BME280;44258;51.288;12.068;2022-09-28T09:25:49;98417.59;;;11.15;62.32
58471;BME280;44258;51.288;12.068;2022-09-28T09:31:18;98410.75;;;10.92;62.60
58471;BME280;44258;51.288;12.068;2022-09-28T09:37:22;98417.97;;;11.01;62.50
58471;BME280;44258;51.288;12.068;2022-09-28T09:42:53;98418.09;;;10.90;62.42
58471;BME280;44258;51.288;12.068;2022-09-28T09:45:30;98418.94;;;10.90;62.42
58471;BME280;44258;51.288;12.068;2022-09-28T09:48:03;98422.75;;;10.88;61.96
58471;BME280;44258;51.288;12.068;2022-09-28T09:50:35;98430.59;;;11.01;62.56
58471;BME280;44258;51.288;12.068;2022-09-28T09:53:14;98420.41;;;11.04;62.20
58471;BME280;44258;51.288;12.068;2022-09-28T09:55:44;98422.53;;;11.01;61.63
58471;BME280;44258;51.288;12.068;2022-09-28T09:58:17;98425.50;;;11.07;61.85
58471;BME280;44258;51.288;12.068;2022-09-28T10:00:47;98434.16;;;11.11;61.56
58471;BME280;44258;51.288;12.068;2022-09-28T10:03:19;98434.44;;;11.08;61.68
58471;BME280;44258;51.288;12.068;2022-09-28T10:05:51;98428.53;;;11.14;61.83
58471;BME280;44258;51.288;12.068;2022-09-28T10:08:21;98427.66;;;11.13;61.08
58471;BME280;44258;51.288;12.068;2022-09-28T10:10:51;98438.16;;;11.17;61.05
58471;BME280;44258;51.288;12.068;2022-09-28T10:13:20;98443.00;;;11.23;61.24
58471;BME280;44258;51.288;12.068;2022-09-28T10:15:47;98439.16;;;11.25;61.26
58471;BME280;44258;51.288;12.068;2022-09-28T10:18:18;98439.84;;;11.18;61.65
58471;BME280;44258;51.288;12.068;2022-09-28T10:20:45;98435.88;;;11.12;61.98
58471;BME280;44258;51.288;12.068;2022-09-28T10:23:16;98450.59;;;11.08;62.37
58471;BME280;44258;51.288;12.068;2022-09-28T10:25:45;98453.31;;;11.27;62.07
58471;BME280;44258;51.288;12.068;2022-09-28T10:28:16;98451.84;;;11.04;62.35
58471;BME280;44258;51.288;12.068;2022-09-28T10:30:45;98450.03;;;11.14;62.18
58471;BME280;44258;51.288;12.068;2022-09-28T10:33:29;98446.09;;;11.18;62.32
58471;BME280;44258;51.288;12.068;2022-09-28T10:35:58;98454.00;;;11.10;62.24
58471;BME280;44258;51.288;12.068;2022-09-28T10:38:25;98454.28;;;11.17;62.10
58471;BME280;44258;51.288;12.068;2022-09-28T10:40:54;98451.91;;;11.23;62.00
58471;BME280;44258;51.288;12.068;2022-09-28T10:43:23;98458.78;;;11.06;62.10
58471;BME280;44258;51.288;12.068;2022-09-28T10:46:05;98454.88;;;10.68;63.13
58471;BME280;44258;51.288;12.068;2022-09-28T10:48:46;98464.06;;;10.87;62.77
58471;BME280;44258;51.288;12.068;2022-09-28T10:51:15;98474.19;;;9.99;65.03
58471;BME280;44258;51.288;12.068;2022-09-28T10:53:57;98469.66;;;10.53;63.63
58471;BME280;44258;51.288;12.068;2022-09-28T10:56:27;98477.66;;;10.22;63.74
58471;BME280;44258;51.288;12.068;2022-09-28T10:58:54;98478.03;;;10.60;62.88
58471;BME280;44258;51.288;12.068;2022-09-28T11:01:25;98477.84;;;10.51;63.05
58471;BME280;44258;51.288;12.068;2022-09-28T11:03:57;98485.75;;;10.11;64.40
58471;BME280;44258;51.288;12.068;2022-09-28T11:06:26;98492.25;;;10.08;64.30
58471;BME280;44258;51.288;12.068;2022-09-28T11:08:55;98488.44;;;10.32;63.55
58471;BME280;44258;51.288;12.068;2022-09-28T11:11:22;98491.22;;;10.21;63.36
58471;BME280;44258;51.288;12.068;2022-09-28T11:13:51;98489.22;;;9.58;64.62
58471;BME280;44258;51.288;12.068;2022-09-28T11:16:27;98494.13;;;9.53;64.37
58471;BME280;44258;51.288;12.068;2022-09-28T11:18:55;98486.00;;;9.76;63.64
58471;BME280;44258;51.288;12.068;2022-09-28T11:21:26;98490.94;;;9.91;63.08
58471;BME280;44258;51.288;12.068;2022-09-28T11:24:05;98489.78;;;10.05;63.45
58471;BME280;44258;51.288;12.068;2022-09-28T11:26:38;98486.03;;;10.29;63.34
58471;BME280;44258;51.288;12.068;2022-09-28T11:29:18;98488.81;;;10.39;62.78
58471;BME280;44258;51.288;12.068;2022-09-28T11:31:46;98491.63;;;10.37;63.18
58471;BME280;44258;51.288;12.068;2022-09-28T11:34:15;98492.66;;;10.46;63.24
58471;BME280;44258;51.288;12.068;2022-09-28T11:37:11;98496.75;;;10.08;62.88
58471;BME280;44258;51.288;12.068;2022-09-28T11:39:47;98498.78;;;10.15;63.49
58471;BME280;44258;51.288;12.068;2022-09-28T11:42:26;98496.34;;;10.45;62.94
58471;BME280;44258;51.288;12.068;2022-09-28T11:45:03;98507.41;;;10.72;62.32
58471;BME280;44258;51.288;12.068;2022-09-28T11:47:50;98500.63;;;10.99;61.78
58471;BME280;44258;51.288;12.068;2022-09-28T11:50:35;98508.69;;;11.20;61.59
58471;BME280;44258;51.288;12.068;2022-09-28T11:53:19;98518.50;;;11.31;61.27
58471;BME280;44258;51.288;12.068;2022-09-28T11:55:50;98518.25;;;11.44;60.50
58471;BME280;44258;51.288;12.068;2022-09-28T11:58:24;98524.09;;;11.49;60.26
58471;BME280;44258;51.288;12.068;2022-09-28T12:00:57;98518.56;;;11.50;60.73
58471;BME280;44258;51.288;12.068;2022-09-28T12:03:29;98521.94;;;11.43;60.76
58471;BME280;44258;51.288;12.068;2022-09-28T12:06:01;98518.53;;;11.41;59.60
58471;BME280;44258;51.288;12.068;2022-09-28T12:08:34;98515.72;;;11.52;59.92
58471;BME280;44258;51.288;12.068;2022-09-28T12:11:06;98521.41;;;11.49;59.41
58471;BME280;44258;51.288;12.068;2022-09-28T12:13:38;98517.56;;;11.51;59.30
58471;BME280;44258;51.288;12.068;2022-09-28T12:16:08;98530.59;;;11.56;59.92
58471;BME280;44258;51.288;12.068;2022-09-28T12:18:45;98532.47;;;11.55;60.46
58471;BME280;44258;51.288;12.068;2022-09-28T12:21:27;98534.19;;;11.57;60.66
58471;BME280;44258;51.288;12.068;2022-09-28T12:24:02;98548.31;;;11.49;61.17
58471;BME280;44258;51.288;12.068;2022-09-28T12:26:33;98538.44;;;11.59;60.69
58471;BME280;44258;51.288;12.068;2022-09-28T12:29:05;98535.47;;;11.72;60.61
58471;BME280;44258;51.288;12.068;2022-09-28T12:31:38;98535.63;;;11.80;60.51
58471;BME280;44258;51.288;12.068;2022-09-28T12:34:08;98540.06;;;11.91;60.38
58471;BME280;44258;51.288;12.068;2022-09-28T12:36:46;98534.53;;;11.92;60.53
58471;BME280;44258;51.288;12.068;2022-09-28T12:39:32;98540.06;;;11.81;60.98
58471;BME280;44258;51.288;12.068;2022-09-28T12:42:10;98540.59;;;11.85;60.71
58471;BME280;44258;51.288;12.068;2022-09-28T12:44:51;98536.38;;;11.92;61.13
58471;BME280;44258;51.288;12.068;2022-09-28T12:47:37;98540.84;;;12.12;60.29
58471;BME280;44258;51.288;12.068;2022-09-28T12:50:18;98542.09;;;12.08;60.88
58471;BME280;44258;51.288;12.068;2022-09-28T12:52:58;98543.41;;;12.14;60.79
58471;BME280;44258;51.288;12.068;2022-09-28T12:55:47;98553.03;;;12.07;60.57
58471;BME280;44258;51.288;12.068;2022-09-28T12:58:37;98547.53;;;12.28;59.78
58471;BME280;44258;51.288;12.068;2022-09-28T13:01:20;98547.38;;;12.29;60.03
58471;BME280;44258;51.288;12.068;2022-09-28T13:06:54;98546.09;;;12.43;58.72
58471;BME280;44258;51.288;12.068;2022-09-28T13:09:21;98551.75;;;12.60;57.80
58471;BME280;44258;51.288;12.068;2022-09-28T13:12:13;98555.31;;;12.41;58.63
58471;BME280;44258;51.288;12.068;2022-09-28T13:17:47;98558.28;;;12.18;59.67
58471;BME280;44258;51.288;12.068;2022-09-28T13:20:26;98557.91;;;11.82;59.97
58471;BME280;44258;51.288;12.068;2022-09-28T13:23:07;98554.06;;;11.75;59.57
58471;BME280;44258;51.288;12.068;2022-09-28T13:25:41;98566.09;;;11.71;60.85
58471;BME280;44258;51.288;12.068;2022-09-28T13:28:10;98559.63;;;11.83;61.26
58471;BME280;44258;51.288;12.068;2022-09-28T13:30:39;98566.16;;;12.00;60.56
58471;BME280;44258;51.288;12.068;2022-09-28T13:33:06;98556.88;;;12.14;60.72
58471;BME280;44258;51.288;12.068;2022-09-28T13:35:40;98559.13;;;12.19;60.92